createdAt,value
2022-08-22T00:01:52.082Z,86.33
2022-08-22T00:02:45.630Z,60.13
2022-08-22T00:02:49.934Z,72.61
2022-08-22T00:02:57.073Z,63.44
2022-08-22T00:03:03.718Z,63.09
2022-08-22T00:04:50.306Z,87.39
2022-08-22T00:07:59.217Z,88.05
2022-08-22T00:11:12.673Z,87.91
2022-08-22T00:14:07.404Z,88.81
2022-08-22T00:17:02.724Z,88.67
2022-08-22T00:19:47.887Z,89.20
2022-08-22T00:23:11.931Z,90.45
2022-08-22T00:26:15.603Z,89.98
2022-08-22T00:29:19.692Z,90.58
2022-08-22T00:32:08.264Z,91.32
2022-08-22T00:35:13.385Z,91.66
2022-08-22T00:38:22.032Z,91.84
2022-08-22T00:41:38.640Z,91.56
2022-08-22T00:44:43.058Z,91.64
2022-08-22T00:47:38.804Z,90.62
2022-08-22T00:50:49.971Z,91.27
2022-08-22T00:54:00.366Z,91.94
2022-08-22T00:57:08.993Z,91.16
2022-08-22T01:00:13.401Z,92.14
2022-08-22T01:03:09.706Z,91.68
2022-08-22T01:06:20.033Z,92.47
2022-08-22T01:09:43.082Z,92.71
2022-08-22T01:13:16.804Z,93.76
2022-08-22T01:15:48.005Z,94.14
2022-08-22T01:18:44.458Z,94.28
2022-08-22T01:22:06.091Z,94.00
2022-08-22T01:25:25.820Z,94.05
2022-08-22T01:28:40.609Z,94.06
2022-08-22T01:31:46.089Z,94.22
2022-08-22T01:34:54.171Z,95.39
2022-08-22T01:38:00.949Z,95.13
2022-08-22T01:41:06.331Z,95.61
2022-08-22T01:44:03.373Z,94.75
2022-08-22T01:46:48.358Z,95.62
2022-08-22T01:49:28.184Z,95.70
2022-08-22T01:52:34.750Z,95.77
2022-08-22T01:55:33.631Z,95.56
2022-08-22T01:58:19.850Z,95.92
2022-08-22T02:01:18.048Z,96.30
2022-08-22T02:03:51.375Z,96.33
2022-08-22T02:07:11.043Z,96.01
2022-08-22T02:10:27.512Z,96.87
2022-08-22T02:13:10.954Z,96.59
2022-08-22T02:16:11.110Z,96.56
2022-08-22T02:19:14.952Z,97.19
2022-08-22T02:22:44.570Z,97.71
2022-08-22T02:25:28.379Z,97.63
2022-08-22T02:28:13.858Z,97.42
2022-08-22T02:31:16.638Z,97.82
2022-08-22T02:34:01.183Z,98.60
2022-08-22T02:36:46.677Z,98.28
2022-08-22T02:39:46.227Z,98.49
2022-08-22T02:42:55.202Z,99.26
2022-08-22T02:45:44.867Z,98.46
2022-08-22T02:48:38.897Z,98.50
2022-08-22T02:52:02.160Z,98.44
2022-08-22T02:55:13.913Z,98.23
2022-08-22T02:58:04.154Z,98.03
2022-08-22T03:01:22.232Z,98.19
2022-08-22T03:03:52.556Z,97.94
2022-08-22T03:06:59.361Z,98.68
2022-08-22T03:09:40.159Z,99.43
2022-08-22T03:13:10.669Z,99.76
2022-08-22T03:16:19.280Z,99.60
2022-08-22T03:19:04.466Z,99.71
2022-08-22T03:21:47.719Z,99.64
2022-08-22T03:24:31.737Z,99.28
2022-08-22T03:27:32.614Z,100.00
2022-08-22T03:30:38.042Z,99.68
2022-08-22T03:33:23.805Z,100.00
2022-08-22T03:36:26.918Z,100.00
2022-08-22T03:39:35.425Z,100.00
2022-08-22T03:43:03.437Z,100.00
2022-08-22T03:46:42.115Z,100.00
2022-08-22T03:49:42.697Z,100.00
2022-08-22T03:53:05.865Z,100.00
2022-08-22T03:57:01.178Z,100.00
2022-08-22T04:00:01.883Z,100.00
2022-08-22T04:03:19.180Z,100.00
2022-08-22T04:06:33.367Z,100.00
2022-08-22T04:09:57.775Z,100.00
2022-08-22T04:13:03.132Z,100.00
2022-08-22T04:15:58.062Z,100.00
2022-08-22T04:18:49.930Z,100.00
2022-08-22T04:21:52.250Z,100.00
2022-08-22T04:24:57.698Z,100.00
2022-08-22T04:27:44.183Z,100.00
2022-08-22T04:30:31.438Z,100.00
2022-08-22T04:33:17.802Z,100.00
2022-08-22T04:36:03.346Z,100.00
2022-08-22T04:39:01.136Z,100.00
2022-08-22T04:41:43.251Z,100.00
2022-08-22T04:44:28.019Z,100.00
2022-08-22T04:47:38.225Z,100.00
2022-08-22T04:50:41.199Z,100.00
2022-08-22T04:53:31.584Z,100.00
2022-08-22T04:56:35.926Z,100.00
2022-08-22T04:59:17.914Z,100.00
2022-08-22T05:02:06.399Z,100.00
2022-08-22T05:04:46.441Z,100.00
2022-08-22T05:07:33.962Z,100.00
2022-08-22T05:10:34.197Z,100.00
2022-08-22T05:13:46.711Z,100.00
2022-08-22T05:16:25.866Z,100.00
2022-08-22T05:19:12.084Z,100.00
2022-08-22T05:21:46.283Z,100.00
2022-08-22T05:24:28.743Z,100.00
2022-08-22T05:27:08.258Z,100.00
2022-08-22T05:29:44.770Z,100.00
2022-08-22T05:33:00.719Z,100.00
2022-08-22T05:35:50.157Z,100.00
2022-08-22T05:38:29.448Z,100.00
2022-08-22T05:41:10.349Z,100.00
2022-08-22T05:43:44.466Z,100.00
2022-08-22T05:46:51.571Z,100.00
2022-08-22T05:49:40.459Z,100.00
2022-08-22T05:52:55.960Z,100.00
2022-08-22T05:55:56.988Z,100.00
2022-08-22T05:58:38.984Z,100.00
2022-08-22T06:01:29.912Z,100.00
2022-08-22T06:04:04.781Z,100.00
2022-08-22T06:06:46.805Z,100.00
2022-08-22T06:09:47.704Z,100.00
2022-08-22T06:12:36.516Z,100.00
2022-08-22T06:15:26.165Z,100.00
2022-08-22T06:18:10.407Z,100.00
2022-08-22T06:20:56.082Z,100.00
2022-08-22T06:23:56.786Z,100.00
2022-08-22T06:26:31.719Z,100.00
2022-08-22T06:29:02.858Z,100.00
2022-08-22T06:31:46.064Z,100.00
2022-08-22T06:34:32.426Z,100.00
2022-08-22T06:37:16.826Z,100.00
2022-08-22T06:39:51.123Z,100.00
2022-08-22T06:42:30.523Z,100.00
2022-08-22T06:45:37.901Z,100.00
2022-08-22T06:48:08.375Z,100.00
2022-08-22T06:50:43.723Z,100.00
2022-08-22T06:53:34.387Z,100.00
2022-08-22T06:56:06.039Z,100.00
2022-08-22T06:58:46.950Z,100.00
2022-08-22T07:01:27.597Z,100.00
2022-08-22T07:04:08.659Z,100.00
2022-08-22T07:06:44.220Z,100.00
2022-08-22T07:09:32.031Z,100.00
2022-08-22T07:12:16.543Z,100.00
2022-08-22T07:14:51.415Z,100.00
2022-08-22T07:17:29.901Z,100.00
2022-08-22T07:20:29.857Z,100.00
2022-08-22T07:23:40.550Z,100.00
2022-08-22T07:26:52.832Z,100.00
2022-08-22T07:29:49.243Z,100.00
2022-08-22T07:32:35.248Z,100.00
2022-08-22T07:35:22.670Z,99.92
2022-08-22T07:38:13.921Z,100.00
2022-08-22T07:41:22.604Z,100.00
2022-08-22T07:44:16.202Z,99.86
2022-08-22T07:47:18.077Z,99.47
2022-08-22T07:50:07.063Z,99.25
2022-08-22T07:52:46.829Z,99.40
2022-08-22T07:55:26.942Z,98.65
2022-08-22T07:58:04.118Z,98.43
2022-08-22T08:00:32.959Z,98.43
2022-08-22T08:03:09.304Z,97.92
2022-08-22T08:05:42.191Z,97.45
2022-08-22T08:08:26.605Z,97.15
2022-08-22T08:10:59.224Z,96.58
2022-08-22T08:13:41.242Z,95.37
2022-08-22T08:16:23.449Z,94.91
2022-08-22T08:18:57.960Z,94.89
2022-08-22T08:21:29.381Z,94.27
2022-08-22T08:24:00.846Z,93.30
2022-08-22T08:27:00.358Z,92.51
2022-08-22T08:29:28.939Z,93.04
2022-08-22T08:31:59.407Z,92.97
2022-08-22T08:34:32.447Z,92.45
2022-08-22T08:37:24.601Z,91.57
2022-08-22T08:39:59.423Z,90.60
2022-08-22T08:43:10.874Z,88.69
2022-08-22T08:46:07.037Z,87.90
2022-08-22T08:49:43.432Z,84.10
2022-08-22T08:53:13.907Z,78.54
2022-08-22T08:56:19.898Z,74.77
2022-08-22T08:59:52.263Z,69.94
2022-08-22T09:03:06.925Z,67.31
2022-08-22T09:06:33.626Z,61.68
2022-08-22T09:09:52.285Z,61.98
2022-08-22T09:12:33.788Z,61.61
2022-08-22T09:15:55.049Z,54.85
2022-08-22T09:18:53.036Z,51.36
2022-08-22T09:22:20.729Z,48.99
2022-08-22T09:25:24.599Z,45.60
2022-08-22T09:28:16.839Z,45.91
2022-08-22T09:31:32.897Z,46.01
2022-08-22T09:34:35.709Z,46.14
2022-08-22T09:37:37.830Z,46.50
2022-08-22T09:43:05.542Z,48.52
2022-08-22T09:45:45.340Z,50.09
2022-08-22T09:48:38.837Z,49.82
2022-08-22T09:52:03.675Z,49.95
2022-08-22T09:54:56.506Z,51.09
2022-08-22T09:58:41.904Z,51.82
2022-08-22T10:01:26.002Z,52.38
2022-08-22T10:04:40.617Z,53.81
2022-08-22T10:07:38.666Z,53.54
2022-08-22T10:10:42.821Z,55.12
2022-08-22T10:14:01.746Z,55.32
2022-08-22T10:17:32.601Z,54.43
2022-08-22T10:20:32.132Z,54.24
2022-08-22T10:23:57.534Z,53.15
2022-08-22T10:26:52.808Z,50.60
2022-08-22T10:29:54.827Z,47.45
2022-08-22T10:32:46.078Z,45.23
2022-08-22T10:36:00.577Z,44.39
2022-08-22T10:38:54.667Z,44.80
2022-08-22T10:42:28.126Z,43.43
2022-08-22T10:45:36.895Z,42.28
2022-08-22T10:48:27.998Z,42.98
2022-08-22T10:51:45.193Z,42.62
2022-08-22T10:54:57.965Z,41.53
2022-08-22T10:57:39.261Z,41.31
2022-08-22T11:00:27.043Z,41.53
2022-08-22T11:03:36.048Z,39.89
2022-08-22T11:06:41.745Z,39.47
2022-08-22T11:09:42.210Z,39.06
2022-08-22T11:12:56.628Z,38.27
2022-08-22T11:15:53.595Z,38.34
2022-08-22T11:19:15.067Z,36.95
2022-08-22T11:22:30.513Z,36.23
2022-08-22T11:25:44.404Z,36.55
2022-08-22T11:29:12.322Z,35.79
2022-08-22T11:31:54.415Z,36.44
2022-08-22T11:35:08.990Z,36.62
2022-08-22T11:37:56.424Z,36.80
2022-08-22T11:40:53.561Z,35.59
2022-08-22T11:44:27.615Z,37.25
2022-08-22T11:46:59.651Z,36.64
2022-08-22T11:49:50.207Z,36.18
2022-08-22T11:52:36.842Z,37.27
2022-08-22T11:55:35.068Z,37.47
2022-08-22T11:58:42.563Z,37.54
2022-08-22T12:01:23.843Z,37.73
2022-08-22T12:04:33.777Z,38.64
2022-08-22T12:07:25.480Z,39.36
2022-08-22T12:10:24.918Z,37.55
2022-08-22T12:13:13.793Z,38.07
2022-08-22T12:16:06.399Z,38.10
2022-08-22T12:18:59.708Z,38.69
2022-08-22T12:22:19.611Z,38.22
2022-08-22T12:25:57.698Z,38.64
2022-08-22T12:29:33.403Z,37.70
2022-08-22T12:32:49.163Z,38.00
2022-08-22T12:36:18.015Z,37.29
2022-08-22T12:39:27.494Z,37.37
2022-08-22T12:43:03.608Z,38.01
2022-08-22T12:45:53.981Z,37.38
2022-08-22T12:49:07.387Z,37.90
2022-08-22T12:52:08.398Z,36.94
2022-08-22T12:55:18.226Z,37.85
2022-08-22T12:58:33.483Z,37.59
2022-08-22T13:01:09.024Z,38.34
2022-08-22T13:03:53.410Z,37.93
2022-08-22T13:06:37.922Z,38.29
2022-08-22T13:09:32.591Z,39.42
2022-08-22T13:12:22.676Z,40.00
2022-08-22T13:15:31.146Z,39.46
2022-08-22T13:18:28.469Z,39.92
2022-08-22T13:21:01.152Z,39.88
2022-08-22T13:23:51.437Z,39.29
2022-08-22T13:26:33.983Z,39.53
2022-08-22T13:29:27.007Z,40.15
2022-08-22T13:32:02.389Z,40.34
2022-08-22T13:34:56.138Z,39.68
2022-08-22T13:37:38.081Z,38.94
2022-08-22T13:40:24.747Z,39.89
2022-08-22T13:43:23.016Z,39.38
2022-08-22T13:46:01.881Z,38.58
2022-08-22T13:48:56.654Z,38.63
2022-08-22T13:52:28.824Z,38.13
2022-08-22T13:55:12.454Z,38.46
2022-08-22T13:57:53.791Z,38.23
2022-08-22T14:01:07.505Z,38.56
2022-08-22T14:03:56.716Z,38.72
2022-08-22T14:07:00.777Z,38.78
2022-08-22T14:09:34.191Z,38.56
2022-08-22T14:12:18.611Z,38.72
2022-08-22T14:14:56.920Z,39.05
2022-08-22T14:17:43.541Z,38.12
2022-08-22T14:20:32.656Z,38.00
2022-08-22T14:23:29.259Z,37.31
2022-08-22T14:25:58.014Z,37.95
2022-08-22T14:28:33.840Z,37.94
2022-08-22T14:31:13.771Z,37.44
2022-08-22T14:33:54.599Z,37.52
2022-08-22T14:36:44.492Z,37.32
2022-08-22T14:39:42.821Z,36.35
2022-08-22T14:42:23.438Z,36.60
2022-08-22T14:45:19.763Z,36.60
2022-08-22T14:48:29.931Z,35.71
2022-08-22T14:51:21.953Z,35.89
2022-08-22T14:53:50.538Z,35.64
2022-08-22T14:56:28.077Z,35.27
2022-08-22T14:59:08.812Z,34.24
2022-08-22T15:02:07.529Z,33.48
2022-08-22T15:04:47.376Z,33.07
2022-08-22T15:07:37.495Z,33.90
2022-08-22T15:10:26.991Z,34.11
2022-08-22T15:13:07.860Z,34.41
2022-08-22T15:15:54.317Z,34.55
2022-08-22T15:18:29.245Z,34.75
2022-08-22T15:21:12.396Z,35.06
2022-08-22T15:23:46.971Z,35.34
2022-08-22T15:26:34.077Z,35.04
2022-08-22T15:29:27.582Z,35.63
2022-08-22T15:32:03.404Z,34.93
2022-08-22T15:34:44.302Z,35.52
2022-08-22T15:37:20.679Z,34.90
2022-08-22T15:40:31.294Z,34.57
2022-08-22T15:43:20.200Z,34.58
2022-08-22T15:45:53.558Z,35.25
2022-08-22T15:48:36.649Z,34.45
2022-08-22T15:51:13.355Z,34.20
2022-08-22T15:54:24.471Z,34.82
2022-08-22T15:56:52.807Z,33.79
2022-08-22T15:59:48.130Z,33.00
2022-08-22T16:03:24.478Z,32.67
2022-08-22T16:05:59.441Z,33.31
2022-08-22T16:08:50.948Z,33.65
2022-08-22T16:11:40.586Z,33.94
2022-08-22T16:14:49.828Z,34.72
2022-08-22T16:17:28.737Z,34.50
2022-08-22T16:20:08.135Z,35.14
2022-08-22T16:22:58.823Z,34.39
2022-08-22T16:25:44.550Z,34.51
2022-08-22T16:28:57.754Z,34.60
2022-08-22T16:32:00.966Z,35.34
2022-08-22T16:34:45.792Z,35.89
2022-08-22T16:37:17.948Z,35.32
2022-08-22T16:39:50.334Z,36.20
2022-08-22T16:42:23.349Z,36.28
2022-08-22T16:45:32.971Z,36.07
2022-08-22T16:48:39.542Z,35.69
2022-08-22T16:51:18.687Z,35.83
2022-08-22T16:54:11.976Z,36.75
2022-08-22T16:57:10.749Z,36.76
2022-08-22T17:00:57.567Z,36.26
2022-08-22T17:03:58.783Z,36.92
2022-08-22T17:06:52.659Z,36.78
2022-08-22T17:10:19.672Z,37.07
2022-08-22T17:13:37.422Z,38.07
2022-08-22T17:16:49.759Z,37.93
2022-08-22T17:19:57.366Z,38.58
2022-08-22T17:22:52.497Z,38.50
2022-08-22T17:25:34.722Z,38.75
2022-08-22T17:29:06.412Z,38.77
2022-08-22T17:32:33.585Z,38.92
2022-08-22T17:36:26.518Z,39.76
2022-08-22T17:39:12.619Z,39.48
2022-08-22T17:42:08.460Z,39.92
2022-08-22T17:45:28.248Z,40.04
2022-08-22T17:48:16.364Z,40.12
2022-08-22T17:51:21.883Z,40.01
2022-08-22T17:54:04.579Z,40.35
2022-08-22T17:57:14.623Z,40.44
2022-08-22T18:00:12.958Z,40.62
2022-08-22T18:03:15.137Z,40.64
2022-08-22T18:06:44.447Z,41.27
2022-08-22T18:09:45.908Z,41.45
2022-08-22T18:13:01.325Z,41.81
2022-08-22T18:15:51.180Z,42.05
2022-08-22T18:18:54.423Z,42.19
2022-08-22T18:21:57.306Z,42.53
2022-08-22T18:25:26.511Z,43.10
2022-08-22T18:29:07.656Z,43.22
2022-08-22T18:32:12.795Z,43.52
2022-08-22T18:34:47.537Z,43.43
2022-08-22T18:37:35.475Z,44.31
2022-08-22T18:40:38.024Z,44.23
2022-08-22T18:43:46.301Z,44.65
2022-08-22T18:46:27.587Z,44.76
2022-08-22T18:49:14.676Z,45.08
2022-08-22T18:51:43.978Z,45.50
2022-08-22T18:54:11.479Z,45.54
2022-08-22T18:56:59.626Z,45.59
2022-08-22T18:59:46.724Z,46.29
2022-08-22T19:02:48.112Z,46.07
2022-08-22T19:05:50.242Z,46.94
2022-08-22T19:08:56.222Z,47.45
2022-08-22T19:12:25.860Z,47.58
2022-08-22T19:15:52.587Z,48.29
2022-08-22T19:19:01.598Z,48.22
2022-08-22T19:21:56.285Z,48.85
2022-08-22T19:24:26.432Z,49.05
2022-08-22T19:27:25.084Z,49.40
2022-08-22T19:30:28.809Z,49.17
2022-08-22T19:33:02.856Z,49.38
2022-08-22T19:36:03.687Z,49.48
2022-08-22T19:39:00.564Z,49.85
2022-08-22T19:41:54.091Z,49.57
2022-08-22T19:44:21.203Z,49.38
2022-08-22T19:47:27.030Z,49.21
2022-08-22T19:50:13.720Z,49.43
2022-08-22T19:53:36.160Z,50.00
2022-08-22T19:56:26.263Z,49.94
2022-08-22T19:59:12.250Z,50.29
2022-08-22T20:02:21.944Z,49.78
2022-08-22T20:05:39.139Z,49.87
2022-08-22T20:09:11.140Z,50.04
2022-08-22T20:12:15.493Z,50.00
2022-08-22T20:14:47.542Z,50.46
2022-08-22T20:17:27.027Z,50.42
2022-08-22T20:20:30.536Z,50.51
2022-08-22T20:23:12.282Z,50.46
2022-08-22T20:25:52.931Z,50.44
2022-08-22T20:28:52.298Z,51.25
2022-08-22T20:31:27.219Z,51.20
2022-08-22T20:34:17.717Z,51.12
2022-08-22T20:36:55.865Z,51.68
2022-08-22T20:40:55.605Z,51.54
2022-08-22T20:43:38.492Z,52.00
2022-08-22T20:46:46.286Z,52.38
2022-08-22T20:49:34.369Z,52.07
2022-08-22T20:52:08.095Z,52.59
2022-08-22T20:54:40.822Z,52.84
2022-08-22T20:57:18.192Z,52.70
2022-08-22T21:00:19.072Z,52.97
2022-08-22T21:03:32.830Z,52.66
2022-08-22T21:06:18.041Z,53.08
2022-08-22T21:09:12.528Z,53.72
2022-08-22T21:11:51.166Z,53.03
2022-08-22T21:14:25.667Z,53.41
2022-08-22T21:16:53.704Z,54.33
2022-08-22T21:19:29.937Z,54.34
2022-08-22T21:22:27.003Z,53.82
2022-08-22T21:24:58.549Z,54.73
2022-08-22T21:27:34.483Z,54.70
2022-08-22T21:30:09.997Z,54.67
2022-08-22T21:32:55.043Z,55.19
2022-08-22T21:35:33.058Z,54.97
2022-08-22T21:38:02.308Z,54.93
2022-08-22T21:40:38.006Z,55.21
2022-08-22T21:43:30.609Z,55.54
2022-08-22T21:45:58.006Z,55.20
2022-08-22T21:49:03.453Z,56.08
2022-08-22T21:51:36.259Z,55.89
2022-08-22T21:54:42.211Z,56.47
2022-08-22T21:57:09.340Z,56.58
2022-08-22T21:59:51.802Z,56.83
2022-08-22T22:02:39.780Z,57.97
2022-08-22T22:05:17.880Z,57.50
2022-08-22T22:07:47.690Z,58.32
2022-08-22T22:10:19.420Z,58.42
2022-08-22T22:12:52.045Z,59.48
2022-08-22T22:15:25.841Z,60.04
2022-08-22T22:17:55.339Z,59.56
2022-08-22T22:20:26.233Z,60.46
2022-08-22T22:22:54.620Z,60.42
2022-08-22T22:25:39.597Z,60.76
2022-08-22T22:28:37.821Z,61.23
2022-08-22T22:31:06.949Z,61.18
2022-08-22T22:33:40.912Z,62.04
2022-08-22T22:36:25.255Z,62.23
2022-08-22T22:38:53.969Z,62.11
2022-08-22T22:41:25.542Z,62.45
2022-08-22T22:43:55.020Z,62.92
2022-08-22T22:46:24.262Z,63.29
2022-08-22T22:48:51.819Z,63.77
2022-08-22T22:51:19.550Z,64.17
2022-08-22T22:53:47.750Z,64.19
2022-08-22T22:56:21.609Z,64.48
2022-08-22T22:59:00.655Z,64.66
2022-08-22T23:01:58.810Z,65.24
2022-08-22T23:04:25.980Z,64.78
2022-08-22T23:06:53.355Z,65.84
2022-08-22T23:09:20.613Z,65.76
2022-08-22T23:11:55.935Z,66.73
2022-08-22T23:14:23.327Z,66.52
2022-08-22T23:16:50.677Z,67.01
2022-08-22T23:19:18.999Z,67.32
2022-08-22T23:21:47.718Z,67.22
2022-08-22T23:24:15.883Z,67.51
2022-08-22T23:26:44.677Z,68.04
2022-08-22T23:29:13.356Z,68.37
2022-08-22T23:31:50.856Z,68.79
2022-08-22T23:34:26.782Z,68.97
2022-08-22T23:36:58.336Z,69.02
2022-08-22T23:39:29.918Z,69.17
2022-08-22T23:41:59.623Z,69.49
2022-08-22T23:44:35.133Z,69.60
2022-08-22T23:47:04.795Z,70.33
2022-08-22T23:49:34.468Z,70.60
2022-08-22T23:52:02.857Z,70.62
2022-08-22T23:54:30.160Z,70.60
2022-08-22T23:57:02.621Z,71.31
2022-08-22T23:59:47.951Z,71.27
